sensor_id;sensor_type;location;lat;lon;timestamp;P1;durP1;ratioP1;P2;durP2;ratioP2
49980;SDS011;35871;51.594;7.138;2023-11-22T06:45:57;4.65;;;3.08;;
49980;SDS011;35871;51.594;7.138;2023-11-22T06:55:58;3.87;;;3.00;;
49980;SDS011;35871;51.594;7.138;2023-11-22T07:01:01;3.97;;;2.50;;
49980;SDS011;35871;51.594;7.138;2023-11-22T07:06:02;4.88;;;3.03;;
49980;SDS011;35871;51.594;7.138;2023-11-22T07:11:04;4.60;;;2.70;;
49980;SDS011;35871;51.594;7.138;2023-11-22T07:16:10;3.72;;;3.00;;
49980;SDS011;35871;51.594;7.138;2023-11-22T07:21:11;4.60;;;3.30;;
49980;SDS011;35871;51.594;7.138;2023-11-22T07:31:16;4.10;;;3.05;;
49980;SDS011;35871;51.594;7.138;2023-11-22T07:36:17;3.30;;;2.58;;
49980;SDS011;35871;51.594;7.138;2023-11-22T07:41:20;3.33;;;2.50;;
49980;SDS011;35871;51.594;7.138;2023-11-22T07:46:21;4.88;;;3.40;;
49980;SDS011;35871;51.594;7.138;2023-11-22T08:01:25;2.85;;;2.50;;
49980;SDS011;35871;51.594;7.138;2023-11-22T08:06:32;5.25;;;4.00;;
49980;SDS011;35871;51.594;7.138;2023-11-22T08:11:57;5.28;;;4.45;;
49980;SDS011;35871;51.594;7.138;2023-11-22T08:17:02;5.18;;;3.67;;
49980;SDS011;35871;51.594;7.138;2023-11-22T08:22:05;6.57;;;5.13;;
49980;SDS011;35871;51.594;7.138;2023-11-22T08:27:06;5.30;;;3.70;;
49980;SDS011;35871;51.594;7.138;2023-11-22T08:32:07;4.57;;;3.30;;
49980;SDS011;35871;51.594;7.138;2023-11-22T08:37:10;4.78;;;3.40;;
49980;SDS011;35871;51.594;7.138;2023-11-22T08:42:11;6.80;;;3.22;;
49980;SDS011;35871;51.594;7.138;2023-11-22T08:47:13;5.47;;;3.20;;
49980;SDS011;35871;51.594;7.138;2023-11-22T08:52:14;3.80;;;3.40;;
49980;SDS011;35871;51.594;7.138;2023-11-22T09:02:16;3.63;;;3.10;;
49980;SDS011;35871;51.594;7.138;2023-11-22T09:07:17;4.63;;;3.30;;
49980;SDS011;35871;51.594;7.138;2023-11-22T09:12:23;5.28;;;3.67;;
49980;SDS011;35871;51.594;7.138;2023-11-22T09:22:24;4.63;;;3.45;;
49980;SDS011;35871;51.594;7.138;2023-11-22T09:27:26;4.53;;;3.72;;
49980;SDS011;35871;51.594;7.138;2023-11-22T09:37:28;4.50;;;3.25;;
49980;SDS011;35871;51.594;7.138;2023-11-22T09:42:31;3.50;;;2.60;;
49980;SDS011;35871;51.594;7.138;2023-11-22T09:47:32;4.07;;;2.72;;
49980;SDS011;35871;51.594;7.138;2023-11-22T09:52:36;2.80;;;2.35;;
49980;SDS011;35871;51.594;7.138;2023-11-22T09:57:38;5.53;;;2.60;;
49980;SDS011;35871;51.594;7.138;2023-11-22T10:02:40;4.40;;;2.85;;
49980;SDS011;35871;51.594;7.138;2023-11-22T10:07:42;5.03;;;3.20;;
49980;SDS011;35871;51.594;7.138;2023-11-22T10:12:43;4.97;;;2.90;;
49980;SDS011;35871;51.594;7.138;2023-11-22T10:18:02;6.72;;;3.28;;
49980;SDS011;35871;51.594;7.138;2023-11-22T10:23:03;4.40;;;3.22;;
49980;SDS011;35871;51.594;7.138;2023-11-22T10:28:08;4.70;;;3.08;;
49980;SDS011;35871;51.594;7.138;2023-11-22T10:33:10;4.15;;;2.90;;
49980;SDS011;35871;51.594;7.138;2023-11-22T10:38:14;4.60;;;2.20;;
49980;SDS011;35871;51.594;7.138;2023-11-22T10:43:16;4.35;;;2.50;;
49980;SDS011;35871;51.594;7.138;2023-11-22T10:53:21;4.05;;;2.28;;
49980;SDS011;35871;51.594;7.138;2023-11-22T10:58:24;5.38;;;2.47;;
49980;SDS011;35871;51.594;7.138;2023-11-22T11:03:28;7.05;;;2.80;;
49980;SDS011;35871;51.594;7.138;2023-11-22T11:08:38;5.43;;;2.50;;
49980;SDS011;35871;51.594;7.138;2023-11-22T11:13:40;4.88;;;2.75;;
49980;SDS011;35871;51.594;7.138;2023-11-22T11:18:41;4.43;;;2.40;;
49980;SDS011;35871;51.594;7.138;2023-11-22T11:23:42;4.60;;;2.72;;
49980;SDS011;35871;51.594;7.138;2023-11-22T11:28:44;3.92;;;2.45;;
49980;SDS011;35871;51.594;7.138;2023-11-22T11:43:52;3.67;;;2.50;;
49980;SDS011;35871;51.594;7.138;2023-11-22T11:53:54;3.55;;;2.08;;
49980;SDS011;35871;51.594;7.138;2023-11-22T11:58:56;3.63;;;2.33;;
49980;SDS011;35871;51.594;7.138;2023-11-22T12:04:02;3.72;;;2.45;;
49980;SDS011;35871;51.594;7.138;2023-11-22T12:09:04;3.20;;;2.30;;
49980;SDS011;35871;51.594;7.138;2023-11-22T12:19:05;3.97;;;2.78;;
49980;SDS011;35871;51.594;7.138;2023-11-22T12:24:07;5.03;;;3.88;;
49980;SDS011;35871;51.594;7.138;2023-11-22T12:29:13;5.13;;;2.63;;
49980;SDS011;35871;51.594;7.138;2023-11-22T12:34:14;3.67;;;2.20;;
49980;SDS011;35871;51.594;7.138;2023-11-22T12:44:17;4.95;;;3.88;;
49980;SDS011;35871;51.594;7.138;2023-11-22T12:49:18;5.45;;;2.40;;
49980;SDS011;35871;51.594;7.138;2023-11-22T12:54:19;2.75;;;2.00;;
49980;SDS011;35871;51.594;7.138;2023-11-22T12:59:21;4.53;;;3.20;;
49980;SDS011;35871;51.594;7.138;2023-11-22T13:04:22;3.10;;;2.08;;
49980;SDS011;35871;51.594;7.138;2023-11-22T13:14:24;2.50;;;2.00;;
49980;SDS011;35871;51.594;7.138;2023-11-22T13:19:26;3.88;;;1.98;;
49980;SDS011;35871;51.594;7.138;2023-11-22T13:29:28;3.08;;;2.03;;
49980;SDS011;35871;51.594;7.138;2023-11-22T13:39:30;3.10;;;2.40;;
49980;SDS011;35871;51.594;7.138;2023-11-22T13:44:33;2.67;;;1.98;;
49980;SDS011;35871;51.594;7.138;2023-11-22T13:54:36;4.18;;;1.92;;
49980;SDS011;35871;51.594;7.138;2023-11-22T13:59:39;2.80;;;2.00;;
49980;SDS011;35871;51.594;7.138;2023-11-22T14:04:40;3.38;;;2.17;;
49980;SDS011;35871;51.594;7.138;2023-11-22T14:09:42;2.53;;;1.90;;
49980;SDS011;35871;51.594;7.138;2023-11-22T14:14:47;3.33;;;2.25;;
49980;SDS011;35871;51.594;7.138;2023-11-22T14:19:48;3.63;;;1.85;;
49980;SDS011;35871;51.594;7.138;2023-11-22T14:24:54;4.47;;;2.65;;
49980;SDS011;35871;51.594;7.138;2023-11-22T14:29:59;3.35;;;1.88;;
49980;SDS011;35871;51.594;7.138;2023-11-22T14:35:02;3.47;;;2.42;;
49980;SDS011;35871;51.594;7.138;2023-11-22T14:40:03;3.78;;;2.13;;
49980;SDS011;35871;51.594;7.138;2023-11-22T14:45:05;5.00;;;3.00;;
49980;SDS011;35871;51.594;7.138;2023-11-22T14:50:06;3.55;;;1.88;;
49980;SDS011;35871;51.594;7.138;2023-11-22T14:55:11;3.40;;;2.20;;
49980;SDS011;35871;51.594;7.138;2023-11-22T15:05:14;3.05;;;2.00;;
49980;SDS011;35871;51.594;7.138;2023-11-22T15:15:16;3.05;;;2.00;;
49980;SDS011;35871;51.594;7.138;2023-11-22T15:20:18;3.55;;;2.03;;
49980;SDS011;35871;51.594;7.138;2023-11-22T15:25:19;5.25;;;2.30;;
49980;SDS011;35871;51.594;7.138;2023-11-22T15:35:22;4.53;;;3.20;;
49980;SDS011;35871;51.594;7.138;2023-11-22T15:40:24;4.57;;;2.70;;
49980;SDS011;35871;51.594;7.138;2023-11-22T15:45:25;3.05;;;2.20;;
49980;SDS011;35871;51.594;7.138;2023-11-22T15:55:27;3.92;;;2.15;;
49980;SDS011;35871;51.594;7.138;2023-11-22T16:05:30;6.30;;;3.03;;
49980;SDS011;35871;51.594;7.138;2023-11-22T16:15:32;6.30;;;2.40;;
49980;SDS011;35871;51.594;7.138;2023-11-22T16:20:33;2.97;;;2.30;;
49980;SDS011;35871;51.594;7.138;2023-11-22T16:30:36;3.25;;;2.10;;
49980;SDS011;35871;51.594;7.138;2023-11-22T16:35:37;4.22;;;3.03;;
49980;SDS011;35871;51.594;7.138;2023-11-22T16:45:40;3.50;;;2.50;;
49980;SDS011;35871;51.594;7.138;2023-11-22T16:55:42;4.78;;;3.40;;
49980;SDS011;35871;51.594;7.138;2023-11-22T17:00:44;5.75;;;4.25;;
49980;SDS011;35871;51.594;7.138;2023-11-22T17:05:46;3.90;;;2.83;;
49980;SDS011;35871;51.594;7.138;2023-11-22T17:10:49;4.10;;;3.13;;
49980;SDS011;35871;51.594;7.138;2023-11-22T17:15:50;4.10;;;3.03;;
49980;SDS011;35871;51.594;7.138;2023-11-22T17:25:54;5.35;;;3.65;;
49980;SDS011;35871;51.594;7.138;2023-11-22T18:56:13;6.88;;;5.50;;
49980;SDS011;35871;51.594;7.138;2023-11-22T19:06:15;11.45;;;8.88;;
49980;SDS011;35871;51.594;7.138;2023-11-22T19:11:18;5.93;;;4.78;;
49980;SDS011;35871;51.594;7.138;2023-11-22T19:21:23;9.50;;;7.35;;
49980;SDS011;35871;51.594;7.138;2023-11-22T19:31:26;11.60;;;8.43;;
49980;SDS011;35871;51.594;7.138;2023-11-22T19:36:27;9.32;;;6.60;;
49980;SDS011;35871;51.594;7.138;2023-11-22T19:41:34;9.20;;;6.65;;
49980;SDS011;35871;51.594;7.138;2023-11-22T19:46:36;7.40;;;6.03;;
49980;SDS011;35871;51.594;7.138;2023-11-22T19:51:37;13.75;;;10.80;;
49980;SDS011;35871;51.594;7.138;2023-11-22T19:56:39;12.32;;;9.05;;
49980;SDS011;35871;51.594;7.138;2023-11-22T20:01:41;12.60;;;9.63;;
